44.7F
Current conditions from King Hill
Updated every 5 minutes
 
  Tuesday October 20, 2020

Observations for Westford

Westford

44° 37' 38"N, 73° 02' 29"W, Elevation 850 ft.
Eastern Time

Hourly observations for the last 72 hours

Date Time Temperature (°F) Humi-
dity

(%)
Wind
(mph)
Pressure Rain (in)
Air Dew 6 Hour 1 Hr 3 Hr 6 Hr Day
Alt
(in)
Sea
Level

(mb)
Max Min
20 18:00 45.4 44.1 95 N 3 G 8 30.28 1025.4 0.19
20 17:00 46.2 44.8 95 NNE 0 G 6 30.27 1025.1 0.19
20 16:00 47.0 45.6 95 N 2 G 8 30.25 1024.3 0.19
20 15:00 47.8 46.4 95 N 0 G 5 30.21 1023.2 0.19
20 14:00 47.6 46.5 55.4 47.3 96 N 0 G 3 30.20 1022.8 0.06 0.15 0.19
20 13:00 47.9 46.8 96 N 0 G 6 30.19 1022.4 0.01 0.19
20 12:00 51.5 49.8 94 W 6 G 11 30.17 1021.7 0.05 0.18
20 11:00 54.7 53.6 96 SSW 4 G 9 30.14 1020.8 0.09 0.09 0.13
20 10:00 55.3 53.6 94 S 6 G 16 30.10 1019.5 0.04
20 09:00 55.2 53.2 93 S 7 G 20 30.08 1018.7 0.04
20 08:00 54.6 52.6 55.7 53.3 93 S 8 G 24 30.06 1018.0 0.02 0.04 0.04 0.04
20 07:00 55.2 52.6 91 S 7 G 17 30.06 1017.8 0.02 0.02
20 06:00 55.4 52.2 89 SSE 8 G 29 30.04 1017.4 0.00
20 05:00 55.3 51.8 88 SSE 7 G 29 30.06 1018.1 0.00
20 04:00 54.8 51.6 89 SSE 3 G 17 30.07 1018.3 0.00
20 03:00 54.2 51.3 90 S 7 G 15 30.08 1018.8 0.00
20 02:00 53.3 51.6 53.3 50.7 94 S 6 G 13 30.10 1019.4 0.03 0.00
20 01:00 52.3 51.2 96 S 0 G 6 30.13 1020.3 0.00
20 00:00 52.0 51.2 97 S 0 G 6 30.16 1021.3 0.39
19 23:00 51.9 51.1 97 S 2 G 7 30.18 1021.9 0.03 0.39
19 22:00 51.5 50.7 97 S 0 G 5 30.20 1022.9 0.02 0.39
19 21:00 51.0 50.2 97 S 1 G 3 30.21 1023.1 0.01 0.37
19 20:00 50.9 49.8 54.7 50.8 96 Calm 30.22 1023.5 0.12 0.36 0.36
19 19:00 51.0 49.9 96 S 0 G 3 30.23 1023.7 0.04 0.36
19 18:00 51.2 50.1 96 S 1 G 7 30.23 1023.8 0.08 0.32
19 17:00 51.2 49.8 95 S 0 G 6 30.23 1023.7 0.13 0.24 0.24
19 16:00 51.7 50.0 94 S 3 G 7 30.23 1023.7 0.07 0.11
19 15:00 52.1 49.6 91 SSE 3 G 8 30.22 1023.5 0.04 0.04
19 14:00 54.7 49.3 55.7 51.5 82 S 3 G 10 30.23 1023.8 0.00
19 13:00 54.5 47.8 78 S 5 G 16 30.23 1023.7 0.00
19 12:00 54.3 47.6 78 SSE 4 G 13 30.24 1024.2 0.00
19 11:00 53.9 46.9 77 S 8 G 16 30.25 1024.3 0.00
19 10:00 52.5 46.2 79 S 6 G 13 30.25 1024.4 0.00
19 09:00 52.0 45.4 78 S 8 G 17 30.26 1024.6 0.00
19 08:00 51.5 44.9 52.4 50.7 78 S 5 G 15 30.24 1024.2 0.00
19 07:00 51.0 44.4 78 SSE 6 G 16 30.23 1023.8 0.00
19 06:00 51.1 44.1 77 SSE 7 G 21 30.23 1023.8 0.00
19 05:00 51.1 43.5 75 S 12 G 22 30.22 1023.4 0.00
19 04:00 51.4 43.0 73 S 10 G 22 30.23 1023.6 0.00
19 03:00 51.6 42.1 70 S 8 G 21 30.22 1023.4 0.00
19 02:00 52.2 41.6 53.0 49.6 67 SSE 10 G 22 30.24 1024.0 0.00
19 01:00 52.3 40.1 63 S 4 G 21 30.25 1024.5 0.00
19 00:00 51.1 38.5 62 ESE 1 G 11 30.25 1024.5 0.00
18 23:00 52.3 38.0 58 SSE 2 G 11 30.26 1024.9 0.00
18 22:00 52.9 37.6 56 SSE 1 G 12 30.25 1024.4 0.00
18 21:00 50.7 36.0 57 S 1 G 10 30.26 1024.9 0.00
18 20:00 50.7 35.1 59.3 50.4 55 SSE 1 G 10 30.28 1025.6 0.00
18 19:00 51.6 34.1 51 S 1 G 9 30.29 1025.9 0.00
18 18:00 51.8 36.2 55 S 5 G 10 30.29 1025.7 0.00
18 17:00 53.4 38.1 56 SSE 2 G 7 30.29 1025.9 0.00
18 16:00 54.5 36.8 51 S 3 G 13 30.31 1026.3 0.00
18 15:00 56.2 35.1 45 SSE 3 G 13 30.31 1026.4 0.00
18 14:00 58.4 34.8 59.1 39.7 41 S 11 G 26 30.33 1027.2 0.00
18 13:00 58.4 33.5 39 S 11 G 20 30.36 1028.3 0.00
18 12:00 56.4 34.8 44 S 6 G 19 30.39 1029.1 0.00
18 11:00 54.6 36.8 51 S 6 G 16 30.41 1029.8 0.00
18 10:00 50.5 36.7 59 S 5 G 11 30.42 1030.2 0.00
18 09:00 42.0 34.3 74 S 1 G 5 30.43 1030.5 0.00
18 08:00 39.7 32.4 39.7 33.6 75 S 1 G 8 30.41 1029.8 0.00
18 07:00 37.0 32.0 82 SSE 2 G 7 30.41 1029.7 0.00
18 06:00 37.1 31.8 81 S 2 G 5 30.40 1029.5 0.00
18 05:00 36.5 31.8 83 S 1 G 7 30.39 1029.2 0.00
18 04:00 36.8 31.8 82 S 1 G 6 30.39 1029.0 0.00
18 03:00 35.3 32.1 88 S 0 G 5 30.38 1028.7 0.00
18 02:00 33.8 32.0 38.5 33.3 93 SW 1 G 2 30.37 1028.4 0.00
18 01:00 33.7 31.6 92 WSW 1 G 2 30.35 1027.7 0.00
18 00:00 33.7 31.6 92 WSW 1 G 2 30.35 1027.7 0.01
17 23:00 34.5 32.1 91 WSW 0 G 2 30.32 1026.8 0.01
17 22:00 36.0 33.4 90 WSW 0 G 2 30.30 1026.1 0.01
17 21:00 36.6 33.4 88 WSW 1 G 4 30.29 1025.7 0.01
17 20:00 38.4 34.0 54.2 37.4 84 WSW 0 G 4 30.26 1024.8 0.01
17 19:00 38.6 34.2 84 Calm 30.24 1024.1 0.01

Data generated by WxSolution Version 1.9.1.7, Build 2018.11.24.


 
 
Current Radar Loop:

Copyright © WestfordWeather.net 2007-2020. All rights reserved.